ハンブルク の空港の天気 - METARとTAF

ハンブルク国際空港 ( EDDH / HAM ) - ドイツ ハンブルク
飛行場実況気象(Metar)
観測時間10/20 17:50 CEST (10/20 15:50 UTC)
風向・風速東北東 1m/s
視程10km以上
天気現象弱い雨
少しの雲 雲底高度 300m
全天の8割程度の雲 雲底高度 1430m
気温12℃
湿度94%
気圧1011hPa
METAREDDH 201550Z 06002KT 9999 -RA FEW010 BKN047 12/11 Q1011 NOSIG
過去の天気等 Google飛行場航空写真 Wunderground天気予報

過去48時間のMETAR

飛行場予報(TAF)
発表時間: 10/20 13:00 CEST (10/20 11:00 UTC)
予報対象時間: 20日14時 CEST ~ 21日20時 CEST
風向・風速不定 1m/s
視程10km以上
全天の8割程度の雲 雲底高度 1370m
20日14時 CEST ~ 20日24時 CEST に 確率 30% で一時的に
全天の8割程度の雲 雲底高度 120m
20日17時 CEST ~ 20日24時 CEST に一時的に
視程3500m
天気現象
全天の8割程度の雲 雲底高度 210m
20日18時 CEST ~ 20日21時 CEST に徐々に
風向・風速北東 4m/s
21日0時 CEST ~ 21日2時 CEST に徐々に
視程4000m
天気現象弱い雨
全天の8割程度の雲 雲底高度 210m
21日2時 CEST ~ 21日11時 CEST に一時的に
視程2000m
天気現象雨霧雨
全天の8割程度の雲 雲底高度 90m
21日4時 CEST ~ 21日8時 CEST に 確率 40% で一時的に
視程700m
天気現象
全天の8割程度の雲 雲底高度 30m
21日8時 CEST ~ 21日11時 CEST に徐々に
風向・風速南東 3m/s
21日11時 CEST ~ 21日14時 CEST に徐々に
風向・風速南西 5m/s
視程10km以上
全天の4割程度の雲 雲底高度 180m
全天の8割程度の雲 雲底高度 370m
21日14時 CEST ~ 21日17時 CEST に徐々に
全天の8割程度の雲 雲底高度 460m
TAF EDDH 201100Z 2012/2118 VRB02KT 9999 BKN045
PROB30 TEMPO 2012/2022 BKN004
TEMPO 2015/2022 3500 RA BKN007
BECMG 2016/2019 05007KT
BECMG 2022/2024 4000 -RA BKN007
TEMPO 2100/2109 2000 RADZ BKN003
PROB40 TEMPO 2102/2106 0700 FG BKN001
BECMG 2106/2109 13006KT
BECMG 2109/2112 23009KT 9999 SCT006 BKN012
BECMG 2112/2115 BKN015